Time;durP1;ratioP1;P1;durP2;ratioP2;P2;SDS_P1;SDS_P2;PMS_P1;PMS_P2;Temp;Humidity;BMP_temperature;BMP_pressure;BME280_temperature;BME280_humidity;BME280_pressure;Samples;Min_cycle;Max_cycle;Signal;HPM_P1;HPM_P2
2021/05/13 00:01:55;;;;;;;215.83;202.70;;;7.30;99.90;;;;;;4864045;29;20952;-83
2021/05/13 00:04:22;;;;;;;199.83;188.73;;;7.30;99.90;;;;;;4862787;29;20468;-83
2021/05/13 00:06:48;;;;;;;209.47;197.27;;;7.30;99.90;;;;;;4863961;29;20500;-83
2021/05/13 00:09:18;;;;;;;212.90;200.50;;;7.30;99.90;;;;;;4863606;29;20824;-83
2021/05/13 00:11:51;;;;;;;214.83;201.63;;;7.20;99.90;;;;;;4864044;29;20871;-82
2021/05/13 00:14:25;;;;;;;211.07;199.17;;;7.00;99.90;;;;;;4863670;29;20483;-82
2021/05/13 00:16:56;;;;;;;212.60;200.90;;;7.10;99.90;;;;;;4864027;29;20465;-82
2021/05/13 00:19:35;;;;;;;221.53;208.07;;;7.10;99.90;;;;;;4862767;29;20468;-83
2021/05/13 00:22:02;;;;;;;212.47;200.13;;;7.20;99.90;;;;;;4863726;29;20492;-83
2021/05/13 00:24:34;;;;;;;214.13;202.30;;;7.20;99.90;;;;;;4863458;29;20824;-83
2021/05/13 00:27:02;;;;;;;219.10;206.37;;;7.10;99.90;;;;;;4863488;29;20466;-83
2021/05/13 00:29:29;;;;;;;211.67;198.90;;;7.10;99.90;;;;;;4863458;29;20472;-83
2021/05/13 00:31:56;;;;;;;208.47;197.37;;;7.00;99.90;;;;;;4863696;29;20460;-83
2021/05/13 00:34:26;;;;;;;222.97;211.00;;;7.10;99.90;;;;;;4862191;29;20987;-82
2021/05/13 00:37:07;;;;;;;215.90;203.40;;;7.00;99.90;;;;;;4863643;29;20801;-82
2021/05/13 00:39:35;;;;;;;215.67;202.17;;;6.90;99.90;;;;;;4863184;29;20475;-83
2021/05/13 00:42:01;;;;;;;210.63;198.30;;;6.70;99.90;;;;;;4863423;29;20824;-82
2021/05/13 00:44:28;;;;;;;209.60;196.60;;;6.60;99.90;;;;;;4863080;29;20536;-81
2021/05/13 00:46:56;;;;;;;206.80;194.53;;;6.80;99.90;;;;;;4863292;29;20467;-83
2021/05/13 00:49:26;;;;;;;207.67;195.47;;;6.60;99.90;;;;;;4861915;29;20492;-82
2021/05/13 00:51:55;;;;;;;211.57;198.73;;;6.60;99.90;;;;;;4863393;29;20471;-83
2021/05/13 00:54:22;;;;;;;210.67;197.67;;;6.60;99.90;;;;;;4862890;29;20460;-83
2021/05/13 00:56:49;;;;;;;214.93;202.03;;;7.00;99.90;;;;;;4863290;29;20953;-82
2021/05/13 00:59:25;;;;;;;212.87;200.53;;;6.90;99.90;;;;;;4862738;29;20831;-83
2021/05/13 01:01:53;;;;;;;219.33;207.33;;;6.70;99.90;;;;;;4862102;29;20462;-82
2021/05/13 01:04:22;;;;;;;216.07;203.17;;;6.50;99.90;;;;;;4861664;29;20463;-83
2021/05/13 01:06:51;;;;;;;213.63;200.83;;;6.70;99.90;;;;;;4863077;29;20528;-82
2021/05/13 01:09:29;;;;;;;208.53;196.93;;;6.70;99.90;;;;;;4862679;29;20544;-83
2021/05/13 01:12:01;;;;;;;217.07;203.53;;;6.60;99.90;;;;;;4862955;29;20462;-83
2021/05/13 01:14:39;;;;;;;213.87;201.37;;;6.60;99.90;;;;;;4862546;29;20468;-83
2021/05/13 01:17:17;;;;;;;215.37;203.03;;;6.70;99.90;;;;;;4863085;29;20835;-83
2021/05/13 01:19:50;;;;;;;217.27;204.27;;;6.80;99.90;;;;;;4861575;29;20818;-83
2021/05/13 01:22:19;;;;;;;203.70;191.60;;;6.70;99.90;;;;;;4862594;29;20540;-83
2021/05/13 01:24:46;;;;;;;209.73;197.20;;;6.70;99.90;;;;;;4862438;29;20460;-83
2021/05/13 01:27:15;;;;;;;214.63;201.30;;;6.70;99.90;;;;;;4862515;29;20960;-83
2021/05/13 01:29:49;;;;;;;215.97;202.60;;;6.50;99.90;;;;;;4862276;29;20836;-83
2021/05/13 01:32:22;;;;;;;226.43;211.57;;;6.70;99.90;;;;;;4862541;29;20820;-83
2021/05/13 01:34:48;;;;;;;222.57;207.30;;;6.50;99.90;;;;;;4861099;29;20457;-83
2021/05/13 01:37:15;;;;;;;217.97;204.07;;;6.30;99.90;;;;;;4862332;29;20477;-83
2021/05/13 01:39:51;;;;;;;217.33;204.43;;;6.30;99.90;;;;;;4862379;29;20467;-83
2021/05/13 01:42:18;;;;;;;220.10;205.50;;;6.40;99.90;;;;;;4862485;29;20471;-83
2021/05/13 01:44:47;;;;;;;223.20;209.00;;;6.40;99.90;;;;;;4861858;29;20490;-83
2021/05/13 01:47:14;;;;;;;217.80;204.57;;;6.50;99.90;;;;;;4862157;29;20516;-82
2021/05/13 01:49:47;;;;;;;222.93;207.67;;;6.60;99.90;;;;;;4860981;29;20523;-83
2021/05/13 01:52:15;;;;;;;226.40;211.37;;;6.50;99.90;;;;;;4862123;29;20466;-84
2021/05/13 01:54:46;;;;;;;232.03;216.17;;;6.50;99.90;;;;;;4861542;29;20487;-83
2021/05/13 01:57:28;;;;;;;224.67;211.97;;;6.50;99.90;;;;;;4862019;29;20469;-82
2021/05/13 02:00:19;;;;;;;221.97;209.37;;;6.40;99.90;;;;;;4862837;29;20456;-84
2021/05/13 02:02:50;;;;;;;226.40;210.17;;;6.30;99.90;;;;;;4860880;29;20453;-84
2021/05/13 02:05:24;;;;;;;221.67;207.27;;;6.60;99.90;;;;;;4861867;29;20547;-83
2021/05/13 02:07:57;;;;;;;216.57;203.37;;;6.50;99.90;;;;;;4861632;29;20470;-83
2021/05/13 02:10:36;;;;;;;226.43;211.57;;;6.50;99.90;;;;;;4861689;29;20492;-83
2021/05/13 02:13:06;;;;;;;231.83;216.40;;;6.40;99.90;;;;;;4861627;29;20466;-84
2021/05/13 02:15:40;;;;;;;234.90;217.90;;;6.70;99.90;;;;;;4861694;29;20460;-83
2021/05/13 02:18:20;;;;;;;232.97;217.17;;;7.00;99.90;;;;;;4860340;29;20464;-84
2021/05/13 02:20:53;;;;;;;244.33;227.03;;;7.10;99.90;;;;;;4861549;29;20867;-83
2021/05/13 02:23:19;;;;;;;234.43;218.67;;;6.90;99.90;;;;;;4861324;29;20543;-83
2021/05/13 02:25:50;;;;;;;236.57;220.67;;;6.90;99.90;;;;;;4861418;29;20469;-82
2021/05/13 02:28:18;;;;;;;220.53;208.50;;;6.80;99.90;;;;;;4861389;29;20560;-83
2021/05/13 02:30:54;;;;;;;214.10;201.00;;;6.60;99.90;;;;;;4861519;29;20488;-83
2021/05/13 02:33:30;;;;;;;215.47;202.33;;;6.30;99.90;;;;;;4859793;29;20452;-84
2021/05/13 02:35:57;;;;;;;221.93;208.47;;;6.50;99.90;;;;;;4852857;29;20551;-83
2021/05/13 02:38:27;;;;;;;221.67;208.17;;;6.30;99.90;;;;;;4861321;29;20558;-83
2021/05/13 02:41:06;;;;;;;216.50;202.90;;;6.10;99.90;;;;;;4860637;29;20456;-82
2021/05/13 02:43:34;;;;;;;215.70;201.70;;;6.30;99.90;;;;;;4860626;29;21034;-83
2021/05/13 02:46:06;;;;;;;225.87;212.67;;;6.10;99.90;;;;;;4860567;29;20829;-85
2021/05/13 02:48:37;;;;;;;210.70;198.40;;;6.20;99.90;;;;;;4859457;29;20892;-83
2021/05/13 02:51:10;;;;;;;236.13;203.30;;;6.10;99.90;;;;;;4861162;29;20827;-83
2021/05/13 02:53:50;;;;;;;220.20;196.67;;;6.10;99.90;;;;;;4860272;29;20463;-83
2021/05/13 02:56:26;;;;;;;214.20;199.70;;;6.10;99.90;;;;;;4853867;29;20456;-82
2021/05/13 02:58:53;;;;;;;222.83;207.17;;;6.20;99.90;;;;;;4861028;29;20468;-81
2021/05/13 03:01:44;;;;;;;223.00;207.50;;;6.30;99.90;;;;;;4861365;29;21048;-82
2021/05/13 03:04:11;;;;;;;216.57;202.17;;;6.00;99.90;;;;;;4773682;30;20932;-82
2021/05/13 03:06:38;;;;;;;229.17;214.73;;;6.10;99.90;;;;;;4822662;29;20825;-83
2021/05/13 03:09:11;;;;;;;231.80;216.67;;;6.40;99.90;;;;;;4860392;29;20849;-81
2021/05/13 03:11:41;;;;;;;230.50;214.47;;;6.40;99.90;;;;;;4861084;29;20464;-83
2021/05/13 03:14:12;;;;;;;227.77;213.27;;;6.40;99.90;;;;;;4860520;29;20457;-83
2021/05/13 03:16:41;;;;;;;230.17;216.17;;;6.50;99.90;;;;;;4860418;29;20486;-83
2021/05/13 03:19:19;;;;;;;216.93;202.97;;;6.40;99.90;;;;;;4859576;29;20889;-82
2021/05/13 03:22:48;;;;;;;216.60;202.87;;;6.40;99.90;;;;;;4859109;29;20548;-86
2021/05/13 03:25:25;;;;;;;214.27;202.10;;;6.00;99.90;;;;;;4860058;29;20558;-83
2021/05/13 03:28:08;;;;;;;209.10;197.07;;;6.20;99.90;;;;;;4860733;29;20460;-82
2021/05/13 03:30:36;;;;;;;205.33;192.73;;;6.00;99.90;;;;;;4861165;29;20499;-82
2021/05/13 03:33:04;;;;;;;210.10;197.80;;;5.90;99.90;;;;;;4859223;29;20460;-83
2021/05/13 03:36:01;;;;;;;209.00;196.90;;;6.10;99.90;;;;;;4860329;29;21068;-83
2021/05/13 03:38:27;;;;;;;218.50;205.03;;;6.10;99.90;;;;;;4860597;29;20468;-81
2021/05/13 03:40:55;;;;;;;222.30;208.00;;;6.10;99.90;;;;;;4860545;29;20979;-83
2021/05/13 03:43:25;;;;;;;215.10;201.43;;;6.10;99.90;;;;;;4860478;29;20831;-83
2021/05/13 03:45:57;;;;;;;221.00;207.33;;;6.00;99.90;;;;;;4860374;29;20464;-83
2021/05/13 03:48:30;;;;;;;209.33;197.57;;;5.80;99.90;;;;;;4859176;29;20460;-82
2021/05/13 03:50:57;;;;;;;212.23;198.97;;;5.90;99.90;;;;;;4862189;29;20488;-82
2021/05/13 03:53:28;;;;;;;222.63;208.90;;;6.20;99.90;;;;;;4860050;29;20552;-83
2021/05/13 03:55:54;;;;;;;225.30;211.43;;;6.20;99.90;;;;;;4860355;29;20564;-83
2021/05/13 03:58:42;;;;;;;216.77;204.27;;;6.20;99.90;;;;;;4860222;29;20497;-82
2021/05/13 04:01:13;;;;;;;213.67;201.60;;;6.20;99.90;;;;;;4860051;29;20508;-82
2021/05/13 04:03:48;;;;;;;212.00;201.10;;;6.10;99.90;;;;;;4858878;29;20460;-83
2021/05/13 04:06:16;;;;;;;210.47;198.40;;;5.90;99.90;;;;;;4860050;29;20482;-82
2021/05/13 04:08:46;;;;;;;209.63;198.73;;;5.90;99.90;;;;;;4860008;29;21322;-82
2021/05/13 04:11:29;;;;;;;213.13;202.00;;;6.00;99.90;;;;;;4860018;29;20839;-83
2021/05/13 04:14:08;;;;;;;204.87;194.87;;;5.90;99.90;;;;;;4859941;29;20496;-84
2021/05/13 04:16:37;;;;;;;207.60;197.20;;;5.80;99.90;;;;;;4860379;29;20496;-82
2021/05/13 04:19:08;;;;;;;207.70;195.53;;;5.90;99.90;;;;;;4859015;29;21005;-82
2021/05/13 04:21:40;;;;;;;213.43;201.40;;;6.00;99.90;;;;;;4860158;29;20965;-82
2021/05/13 04:24:08;;;;;;;211.87;198.60;;;6.10;99.90;;;;;;4859737;29;20847;-82
2021/05/13 04:26:43;;;;;;;208.70;196.17;;;6.00;99.90;;;;;;4860124;29;20520;-83
2021/05/13 04:29:13;;;;;;;217.47;202.30;;;6.00;99.90;;;;;;4859843;29;20990;-83
2021/05/13 04:31:40;;;;;;;212.53;199.90;;;6.10;99.90;;;;;;4860040;29;21098;-82
2021/05/13 04:34:10;;;;;;;213.40;200.17;;;6.20;99.90;;;;;;4858844;29;20467;-83
2021/05/13 04:36:41;;;;;;;209.87;197.67;;;6.30;99.90;;;;;;4860523;29;20488;-83
2021/05/13 04:39:10;;;;;;;208.43;196.37;;;6.40;99.90;;;;;;4862925;29;20471;-83
2021/05/13 04:41:36;;;;;;;213.80;200.90;;;6.50;99.90;;;;;;4863345;29;20460;-83
2021/05/13 04:44:05;;;;;;;216.47;199.80;;;6.50;99.90;;;;;;4863339;29;20559;-82
2021/05/13 04:46:36;;;;;;;238.20;197.80;;;6.50;99.90;;;;;;4863212;29;20464;-81
2021/05/13 04:49:16;;;;;;;217.07;199.00;;;6.60;99.90;;;;;;4861405;29;20464;-82
2021/05/13 04:51:46;;;;;;;223.97;203.47;;;6.70;99.90;;;;;;4863088;29;20830;-82
2021/05/13 04:54:15;;;;;;;225.73;208.97;;;6.60;99.90;;;;;;4863115;29;20464;-78
2021/05/13 04:56:41;;;;;;;230.23;215.83;;;6.80;99.90;;;;;;4862009;29;20468;-82
2021/05/13 04:59:08;;;;;;;226.43;212.87;;;6.80;99.90;;;;;;4862818;29;20460;-82
2021/05/13 05:01:38;;;;;;;234.90;221.07;;;6.90;99.90;;;;;;4862156;29;20464;-82
2021/05/13 05:04:05;;;;;;;234.07;220.07;;;7.00;99.90;;;;;;4848526;29;20504;-83
2021/05/13 05:06:35;;;;;;;231.73;218.47;;;6.70;99.90;;;;;;4862875;29;20552;-81
2021/05/13 05:09:06;;;;;;;246.10;232.70;;;7.00;99.90;;;;;;4863037;29;20480;-82
2021/05/13 05:11:32;;;;;;;240.03;226.50;;;7.00;99.90;;;;;;4862663;29;20535;-83
2021/05/13 05:13:59;;;;;;;242.13;227.43;;;7.20;99.90;;;;;;4862775;29;20938;-83
2021/05/13 05:16:25;;;;;;;241.60;227.73;;;7.20;99.90;;;;;;4861480;29;20471;-82
2021/05/13 05:18:58;;;;;;;245.23;231.43;;;7.30;99.90;;;;;;4861483;29;20527;-83
2021/05/13 05:21:27;;;;;;;250.57;235.97;;;7.50;99.90;;;;;;4862399;29;20461;-82
2021/05/13 05:24:02;;;;;;;276.77;261.17;;;7.60;99.90;;;;;;4859158;29;20521;-82
2021/05/13 05:26:32;;;;;;;319.80;289.67;;;8.00;99.90;;;;;;4860792;29;20452;-82
2021/05/13 05:28:59;;;;;;;347.97;328.40;;;8.80;99.90;;;;;;4862593;29;20796;-82
2021/05/13 05:31:28;;;;;;;391.93;372.73;;;9.30;99.90;;;;;;4862755;29;20524;-82
2021/05/13 05:33:56;;;;;;;423.57;402.80;;;9.70;99.90;;;;;;4848754;29;20545;-81
2021/05/13 05:36:26;;;;;;;430.17;408.40;;;10.10;99.90;;;;;;4852490;29;20525;-83
2021/05/13 05:38:57;;;;;;;455.97;432.43;;;10.30;99.90;;;;;;4861518;29;20453;-82
2021/05/13 05:41:27;;;;;;;463.47;440.23;;;10.50;99.90;;;;;;4862161;29;20945;-82
2021/05/13 05:43:53;;;;;;;454.60;431.90;;;10.80;99.90;;;;;;4862462;29;20456;-83
2021/05/13 05:46:23;;;;;;;450.83;429.03;;;11.10;99.90;;;;;;4861510;29;21005;-83
2021/05/13 05:48:53;;;;;;;423.73;403.47;;;11.10;99.90;;;;;;4827582;29;20816;-82
2021/05/13 05:51:23;;;;;;;418.40;400.00;;;11.40;99.90;;;;;;4861504;29;20496;-82
2021/05/13 05:53:49;;;;;;;397.70;380.27;;;11.50;99.90;;;;;;4860426;29;20856;-83
2021/05/13 05:56:17;;;;;;;331.83;317.43;;;11.80;99.90;;;;;;4861924;29;20464;-83
2021/05/13 05:58:43;;;;;;;169.67;160.00;;;12.00;99.90;;;;;;4860998;29;20956;-83
2021/05/13 06:01:11;;;;;;;124.50;116.47;;;12.40;99.90;;;;;;4869657;29;20468;-83
2021/05/13 06:03:39;;;;;;;77.43;71.03;;;12.50;99.90;;;;;;4866747;29;20962;-83
2021/05/13 06:06:21;;;;;;;44.80;31.20;;;12.70;99.90;;;;;;4867619;29;20460;-82
2021/05/13 06:09:02;;;;;;;40.57;20.40;;;13.10;99.90;;;;;;4861220;29;20512;-83
2021/05/13 06:11:28;;;;;;;35.23;14.23;;;13.00;99.90;;;;;;4861265;29;20494;-83
2021/05/13 06:14:28;;;;;;;36.27;12.77;;;13.40;99.90;;;;;;4861102;29;20956;-82
2021/05/13 06:17:01;;;;;;;38.07;14.80;;;13.60;99.90;;;;;;4859995;29;20485;-83
2021/05/13 06:19:29;;;;;;;37.00;13.90;;;13.90;99.90;;;;;;4859106;29;20480;-83
2021/05/13 06:21:59;;;;;;;35.20;12.33;;;14.30;99.90;;;;;;4860656;29;20476;-84
2021/05/13 06:24:30;;;;;;;35.97;12.53;;;14.10;99.90;;;;;;4860663;29;20465;-83
2021/05/13 06:26:58;;;;;;;35.67;11.83;;;14.40;99.90;;;;;;4861029;29;20456;-82
2021/05/13 06:29:30;;;;;;;39.57;12.37;;;14.70;99.90;;;;;;4860576;29;20461;-84
2021/05/13 06:32:00;;;;;;;39.00;12.40;;;14.60;99.90;;;;;;4861082;29;20472;-84
2021/05/13 06:34:28;;;;;;;37.83;11.70;;;14.60;99.90;;;;;;4860183;29;20456;-84
2021/05/13 06:37:17;;;;;;;41.10;11.10;;;14.40;99.90;;;;;;4860350;29;20464;-84
2021/05/13 06:40:19;;;;;;;38.10;11.40;;;14.70;99.90;;;;;;4853505;29;20511;-85
2021/05/13 11:21:00;;;;;;;53.80;4.70;;;28.00;1.00;;;;;;4837819;29;20512;-81
2021/05/13 11:23:30;;;;;;;54.77;5.40;;;28.20;1.00;;;;;;4859986;29;20461;-81
2021/05/13 11:26:20;;;;;;;55.00;5.30;;;27.40;1.00;;;;;;4859789;29;20468;-81
2021/05/13 11:28:47;;;;;;;54.90;5.33;;;26.80;1.00;;;;;;4860026;29;20464;-80
2021/05/13 11:31:19;;;;;;;56.50;5.93;;;27.70;1.00;;;;;;4860252;29;20460;-83
2021/05/13 11:33:52;;;;;;;58.50;5.80;;;27.80;1.00;;;;;;4858388;29;20547;-80
2021/05/13 11:36:23;;;;;;;54.70;5.70;;;27.70;1.00;;;;;;4860103;29;20595;-81
2021/05/13 11:38:51;;;;;;;54.40;5.53;;;27.70;1.00;;;;;;4859978;29;20464;-82
2021/05/13 11:41:18;;;;;;;58.60;5.80;;;28.30;1.00;;;;;;4859557;29;20496;-80
2021/05/13 11:43:45;;;;;;;55.17;5.10;;;27.20;1.00;;;;;;4860092;29;20472;-81
2021/05/13 11:46:16;;;;;;;58.07;5.90;;;26.90;1.00;;;;;;4861311;29;20559;-81
2021/05/13 11:48:49;;;;;;;54.97;4.97;;;26.20;1.00;;;;;;4862199;29;20462;-80
2021/05/13 11:51:17;;;;;;;55.80;5.87;;;25.30;1.00;;;;;;4863937;29;20471;-85
2021/05/13 11:53:46;;;;;;;55.47;6.23;;;25.70;1.00;;;;;;5399865;23;20640;-81
2021/05/13 11:56:14;;;;;;;53.57;5.07;;;25.40;1.00;;;;;;4891575;29;20459;-83
2021/05/13 11:58:47;;;;;;;54.87;5.20;;;25.00;1.00;;;;;;4881883;29;20462;-80
2021/05/13 12:01:27;;;;;;;55.60;5.13;;;25.70;1.00;;;;;;4881773;29;20531;-82
2021/05/13 12:04:09;;;;;;;54.70;4.77;;;25.10;1.00;;;;;;4880399;29;20465;-83
2021/05/13 12:06:57;;;;;;;;;;;;;;;;;;;;;
2021/05/13 12:09:26;;;;;;;54.07;5.10;;;26.00;1.00;;;;;;4880187;29;20454;-83
2021/05/13 12:11:56;;;;;;;55.80;6.00;;;25.70;1.00;;;;;;4881675;29;20546;-80
2021/05/13 12:14:26;;;;;;;57.40;5.90;;;25.30;1.00;;;;;;4881969;29;20922;-81
2021/05/13 12:16:53;;;;;;;55.50;4.80;;;24.90;1.00;;;;;;4873570;29;20517;-80
2021/05/13 12:19:20;;;;;;;54.23;5.00;;;25.20;1.00;;;;;;4861746;29;20576;-80
2021/05/13 12:41:33;;;;;;;56.33;6.17;;;29.00;1.00;;;;;;4647522;30;20572;-79
2021/05/13 12:44:07;;;;;;;55.40;5.03;;;29.40;1.00;;;;;;4758168;29;20561;-80
2021/05/13 12:46:42;;;;;;;57.33;4.63;;;28.10;1.00;;;;;;4852882;29;20533;-80
2021/05/13 12:49:18;;;;;;;55.47;5.10;;;27.50;1.00;;;;;;4861807;29;20452;-79
2021/05/13 12:51:58;;;;;;;56.00;4.70;;;25.50;1.00;;;;;;4862317;29;20542;-79
2021/05/13 12:54:24;;;;;;;53.77;4.07;;;24.20;1.00;;;;;;4872081;29;20490;-79
2021/05/13 12:57:09;;;;;;;54.10;3.60;;;24.80;1.00;;;;;;4879206;29;21334;-78
2021/05/13 12:59:38;;;;;;;51.50;3.23;;;25.60;1.00;;;;;;4879462;29;20783;-80
2021/05/13 13:02:05;;;;;;;55.43;3.90;;;25.40;1.00;;;;;;4879369;29;20555;-79
2021/05/13 13:04:47;;;;;;;52.67;3.77;;;24.90;1.00;;;;;;4875488;29;20542;-80
2021/05/13 13:07:15;;;;;;;53.80;3.50;;;24.60;1.00;;;;;;4879558;29;20467;-78
2021/05/13 13:09:41;;;;;;;53.57;3.20;;;23.90;1.00;;;;;;4879553;29;20459;-78
2021/05/13 13:12:14;;;;;;;51.83;3.27;;;23.50;1.00;;;;;;4878969;29;20511;-78
2021/05/13 13:14:42;;;;;;;52.83;2.97;;;23.30;1.00;;;;;;4879542;29;20978;-79
2021/05/13 13:17:18;;;;;;;50.63;3.00;;;22.90;1.00;;;;;;4879515;29;20479;-80
2021/05/13 13:19:59;;;;;;;52.60;3.37;;;23.00;1.00;;;;;;4878217;29;20509;-81
2021/05/13 13:22:25;;;;;;;54.90;3.17;;;23.20;1.00;;;;;;4879707;29;20938;-80
2021/05/13 13:25:07;;;;;;;51.17;2.93;;;23.40;1.00;;;;;;4877858;29;20463;-80
2021/05/13 13:27:49;;;;;;;49.00;2.80;;;23.30;1.00;;;;;;4880292;29;20467;-81
2021/05/13 13:30:20;;;;;;;48.47;2.70;;;23.20;1.00;;;;;;4879614;29;20536;-81
2021/05/13 13:32:48;;;;;;;54.87;3.27;;;22.80;1.00;;;;;;4879086;29;20470;-79
2021/05/13 13:35:22;;;;;;;47.27;2.70;;;22.90;1.00;;;;;;4880433;29;20550;-82
2021/05/13 13:37:50;;;;;;;49.43;2.83;;;22.80;1.00;;;;;;4877764;29;20466;-81
2021/05/13 13:40:16;;;;;;;50.47;3.67;;;22.90;1.00;;;;;;4880074;29;21005;-80
2021/05/13 13:42:42;;;;;;;48.03;3.30;;;22.80;1.00;;;;;;4877676;29;20470;-79
2021/05/13 13:45:11;;;;;;;45.87;2.60;;;22.50;1.00;;;;;;4879859;29;21023;-79
2021/05/13 13:47:38;;;;;;;50.10;4.20;;;22.80;1.00;;;;;;4879925;29;20546;-81
2021/05/13 13:50:05;;;;;;;50.00;4.70;;;23.00;1.00;;;;;;4876493;29;20462;-83
2021/05/13 13:52:31;;;;;;;49.13;3.40;;;23.10;1.00;;;;;;4877727;29;20463;-80
2021/05/13 13:57:33;;;;;;;52.83;6.60;;;22.70;1.00;;;;;;5060480;23;20831;-82
2021/05/13 13:59:59;;;;;;;84.27;34.37;;;22.60;1.00;;;;;;4898400;29;20459;-80
2021/05/13 14:02:27;;;;;;;58.77;9.37;;;22.30;1.00;;;;;;4898531;29;21037;-80
2021/05/13 15:59:59;;;;;;;27.37;2.30;;;14.80;31.90;;;;;;4820358;29;20458;-83
2021/05/13 16:32:58;;;;;;;;;;;;;;;;;;;;;
